Time;durP1;ratioP1;P1;durP2;ratioP2;P2;SDS_P1;SDS_P2;PMS_P1;PMS_P2;Temp;Humidity;BMP_temperature;BMP_pressure;BME280_temperature;BME280_humidity;BME280_pressure;Samples;Min_cycle;Max_cycle;Signal;HPM_P1;HPM_P2
2022/06/13 00:01:21;;;;;;;4.12;3.83;;;;;;;18.23;100.00;99338.72;1752036;80;21103;-53
2022/06/13 00:03:48;;;;;;;5.80;4.58;;;;;;;18.24;100.00;99340.45;1756308;79;21142;-52
2022/06/13 00:06:15;;;;;;;5.70;5.25;;;;;;;18.23;100.00;99344.16;1757357;79;21097;-51
2022/06/13 00:08:41;;;;;;;6.30;5.80;;;;;;;18.25;100.00;99343.05;1757192;80;21579;-56
2022/06/13 00:11:13;;;;;;;6.62;4.60;;;;;;;18.28;100.00;99342.79;1752119;80;21508;-52
2022/06/13 00:13:42;;;;;;;7.25;4.12;;;;;;;18.31;100.00;99344.36;1758861;79;21066;-55
2022/06/13 00:16:10;;;;;;;5.85;5.50;;;;;;;18.31;100.00;99341.14;1734269;80;21286;-52
2022/06/13 00:18:37;;;;;;;7.53;6.35;;;;;;;18.30;100.00;99339.91;1725975;81;21528;-53
2022/06/13 00:21:04;;;;;;;5.20;4.78;;;;;;;18.32;100.00;99339.28;1726298;81;21019;-56
2022/06/13 00:23:33;;;;;;;6.12;4.08;;;;;;;18.30;100.00;99334.45;1728270;80;21092;-53
2022/06/13 00:26:00;;;;;;;6.08;5.62;;;;;;;18.27;100.00;99341.55;1704998;81;21449;-53
2022/06/13 00:28:26;;;;;;;5.30;3.55;;;;;;;18.25;100.00;99341.68;1729510;81;21567;-52
2022/06/13 00:30:53;;;;;;;5.17;4.60;;;;;;;18.26;100.00;99341.19;1722002;81;21057;-53
2022/06/13 00:33:19;;;;;;;7.83;5.80;;;;;;;18.26;100.00;99338.46;1729398;81;21021;-54
2022/06/13 00:35:46;;;;;;;6.28;4.85;;;;;;;18.26;100.00;99335.23;1730331;81;21761;-52
2022/06/13 00:38:12;;;;;;;6.00;4.92;;;;;;;18.29;100.00;99339.57;1726985;81;21049;-52
2022/06/13 00:40:38;;;;;;;9.00;5.25;;;;;;;18.36;100.00;99340.77;1723129;81;21148;-52
2022/06/13 00:43:06;;;;;;;6.22;5.70;;;;;;;18.38;100.00;99333.30;1728367;81;21463;-51
2022/06/13 00:45:34;;;;;;;4.83;4.47;;;;;;;18.38;100.00;99334.66;1726822;81;21035;-52
2022/06/13 00:48:01;;;;;;;7.12;4.83;;;;;;;18.38;100.00;99320.53;1727441;81;21039;-51
2022/06/13 00:50:42;;;;;;;6.08;5.45;;;;;;;18.38;100.00;99325.98;1731035;81;20970;-52
2022/06/13 00:53:22;;;;;;;4.47;4.17;;;;;;;18.36;100.00;99325.78;1727837;81;21963;-55
2022/06/13 00:56:03;;;;;;;4.80;4.42;;;;;;;18.33;100.00;99326.90;1731301;81;21015;-53
2022/06/13 00:58:39;;;;;;;6.30;5.00;;;;;;;18.30;100.00;99328.52;1732725;81;21238;-54
2022/06/13 01:01:06;;;;;;;5.03;4.62;;;;;;;18.28;100.00;99333.25;1726984;81;20998;-52
2022/06/13 01:03:33;;;;;;;6.28;5.22;;;;;;;18.28;100.00;99325.58;1671648;84;21492;-52
2022/06/13 01:06:01;;;;;;;6.15;4.80;;;;;;;18.28;100.00;99327.80;1658224;84;21185;-57
2022/06/13 01:08:29;;;;;;;4.80;4.40;;;;;;;18.31;100.00;99323.93;1695758;83;21097;-53
2022/06/13 01:11:17;;;;;;;5.37;4.67;;;;;;;18.30;100.00;99320.34;1700154;83;21031;-52
2022/06/13 01:14:09;;;;;;;5.08;4.65;;;;;;;18.31;100.00;99326.66;1694376;83;21427;-54
2022/06/13 01:17:07;;;;;;;6.58;4.15;;;;;;;18.29;100.00;99323.22;1690431;83;21081;-56
2022/06/13 01:19:49;;;;;;;4.28;3.92;;;;;;;18.28;100.00;99325.08;1706138;83;21275;-56
2022/06/13 01:22:41;;;;;;;8.28;3.85;;;;;;;18.28;100.00;99333.75;1763630;79;21598;-56
2022/06/13 01:25:37;;;;;;;8.85;3.72;;;;;;;18.26;100.00;99328.92;1702266;82;21058;-55
2022/06/13 01:28:27;;;;;;;4.35;3.95;;;;;;;18.25;100.00;99332.64;1766179;79;21073;-56
2022/06/13 01:31:36;;;;;;;3.20;2.92;;;;;;;18.24;100.00;99329.05;1765494;79;21092;-56
2022/06/13 01:34:10;;;;;;;5.25;4.58;;;;;;;18.25;100.00;99333.51;1765338;80;20978;-57
2022/06/13 01:37:09;;;;;;;5.25;4.80;;;;;;;18.24;100.00;99335.00;1762275;79;21261;-57
2022/06/13 01:39:51;;;;;;;7.10;4.92;;;;;;;18.26;100.00;99335.73;1702039;82;21103;-57
2022/06/13 01:42:29;;;;;;;5.45;4.78;;;;;;;18.24;100.00;99332.27;1765573;79;21520;-55
2022/06/13 01:45:01;;;;;;;7.50;5.05;;;;;;;18.21;100.00;99336.11;1759049;80;21038;-56
2022/06/13 01:47:48;;;;;;;5.17;4.67;;;;;;;18.17;100.00;99332.44;1746342;80;21971;-56
2022/06/13 01:50:23;;;;;;;4.90;4.45;;;;;;;18.11;100.00;99331.98;1760970;79;21068;-56
2022/06/13 01:53:04;;;;;;;5.33;4.70;;;;;;;18.06;100.00;99332.86;1705837;82;21055;-55
2022/06/13 01:55:57;;;;;;;3.72;3.25;;;;;;;18.04;100.00;99329.39;1763795;79;21136;-56
2022/06/13 01:58:41;;;;;;;14.28;4.00;;;;;;;18.00;100.00;99325.72;1764807;80;21119;-56
2022/06/13 02:01:14;;;;;;;5.08;4.45;;;;;;;17.99;100.00;99326.21;1765644;79;21133;-56
2022/06/13 02:03:45;;;;;;;9.28;5.55;;;;;;;17.97;100.00;99332.28;1768584;80;21054;-55
2022/06/13 02:06:23;;;;;;;4.65;4.10;;;;;;;17.97;100.00;99326.83;1705747;82;21099;-55
2022/06/13 02:09:04;;;;;;;6.05;5.55;;;;;;;17.97;100.00;99322.75;1760593;79;21390;-56
2022/06/13 02:11:40;;;;;;;5.15;4.75;;;;;;;17.96;100.00;99325.09;1767645;79;21061;-55
2022/06/13 02:14:30;;;;;;;4.47;4.15;;;;;;;17.94;100.00;99328.97;1758085;80;21231;-55
2022/06/13 02:17:14;;;;;;;5.90;4.53;;;;;;;17.91;100.00;99327.86;1754950;80;21555;-55
2022/06/13 02:20:01;;;;;;;5.15;3.87;;;;;;;17.88;100.00;99330.34;1750153;80;21081;-55
2022/06/13 02:22:57;;;;;;;3.95;3.65;;;;;;;17.87;100.00;99330.46;1755100;80;21366;-55
2022/06/13 02:25:33;;;;;;;4.50;4.15;;;;;;;17.87;100.00;99338.13;1754270;80;20998;-56
2022/06/13 02:28:11;;;;;;;4.85;4.00;;;;;;;17.86;100.00;99330.13;1679713;83;21556;-56
2022/06/13 02:30:46;;;;;;;6.25;5.75;;;;;;;17.85;100.00;99338.78;1751392;80;21031;-55
2022/06/13 02:33:20;;;;;;;4.80;4.12;;;;;;;17.86;100.00;99336.93;1746515;80;21516;-56
2022/06/13 02:35:52;;;;;;;6.67;5.17;;;;;;;17.85;100.00;99336.56;1752827;80;21029;-56
2022/06/13 02:38:37;;;;;;;5.75;4.65;;;;;;;17.85;100.00;99331.11;1755810;80;21050;-56
2022/06/13 02:41:08;;;;;;;5.78;5.25;;;;;;;17.84;100.00;99339.77;1751018;80;21040;-56
2022/06/13 02:43:39;;;;;;;4.95;4.55;;;;;;;17.84;100.00;99334.33;1754769;80;20985;-55
2022/06/13 02:46:17;;;;;;;4.45;3.90;;;;;;;17.84;100.00;99339.77;1747740;80;21033;-56
2022/06/13 02:48:58;;;;;;;5.42;5.03;;;;;;;17.85;100.00;99340.14;1757047;80;21058;-55
2022/06/13 02:51:45;;;;;;;8.50;5.00;;;;;;;17.87;100.00;99339.50;1751612;80;21400;-55
2022/06/13 02:54:22;;;;;;;5.62;4.83;;;;;;;17.89;100.00;99340.23;1680838;83;22163;-56
2022/06/13 02:57:25;;;;;;;5.55;4.40;;;;;;;17.92;100.00;99336.40;1753276;80;21041;-54
2022/06/13 03:00:20;;;;;;;4.95;4.33;;;;;;;17.93;100.00;99339.49;1686567;83;21027;-55
2022/06/13 03:03:10;;;;;;;5.03;3.37;;;;;;;17.95;100.00;99351.13;1755343;80;22376;-55
2022/06/13 03:05:57;;;;;;;4.75;4.05;;;;;;;17.99;100.00;99347.13;1756404;80;21066;-56
2022/06/13 03:08:50;;;;;;;5.20;3.77;;;;;;;18.02;100.00;99362.73;1728373;81;21367;-55
2022/06/13 03:11:46;;;;;;;4.17;3.75;;;;;;;18.05;100.00;99356.13;1753839;80;22242;-55
2022/06/13 03:14:28;;;;;;;4.42;3.67;;;;;;;18.08;100.00;99356.75;1757080;79;21375;-55
2022/06/13 03:17:24;;;;;;;3.12;2.90;;;;;;;18.11;100.00;99361.08;1755319;80;21007;-55
2022/06/13 03:20:17;;;;;;;3.67;3.37;;;;;;;18.11;100.00;99356.50;1755910;80;20915;-56
2022/06/13 03:22:50;;;;;;;3.95;3.65;;;;;;;18.14;100.00;99354.85;1677111;83;21689;-56
2022/06/13 03:25:31;;;;;;;6.08;3.92;;;;;;;18.17;100.00;99355.09;1743491;80;20896;-55
2022/06/13 03:29:31;;;;;;;3.92;3.52;;;;;;;18.27;100.00;99353.81;1789814;78;28125;-56
2022/06/13 03:32:08;;;;;;;4.58;4.15;;;;;;;18.29;100.00;99362.20;1771582;79;20986;-55
2022/06/13 03:34:38;;;;;;;4.87;3.98;;;;;;;18.35;100.00;99358.10;1768603;79;21292;-53
2022/06/13 03:37:12;;;;;;;4.87;4.37;;;;;;;18.38;100.00;99364.13;1750839;78;21651;-55
2022/06/13 03:40:08;;;;;;;;;;;;;;;18.40;100.00;99359.92;1771955;79;21456;-55
2022/06/13 03:42:43;;;;;;;5.62;4.08;;;;;;;18.43;100.00;99365.11;1772200;79;20139;-54
2022/06/13 03:45:38;;;;;;;3.90;3.50;;;;;;;18.44;100.00;99362.27;1772194;79;21451;-55
2022/06/13 03:48:19;;;;;;;10.55;3.85;;;;;;;18.48;100.00;99360.12;1774759;78;21076;-53
2022/06/13 03:50:54;;;;;;;3.83;3.47;;;;;;;18.51;100.00;99350.32;1769154;79;20953;-54
2022/06/13 03:53:28;;;;;;;5.08;3.62;;;;;;;18.55;100.00;99351.77;1770327;78;20963;-56
2022/06/13 03:56:03;;;;;;;5.58;4.65;;;;;;;18.61;100.00;99344.97;1703156;82;20952;-55
2022/06/13 03:58:37;;;;;;;6.28;4.80;;;;;;;18.68;100.00;99355.20;1692494;83;21094;-57
2022/06/13 04:01:08;;;;;;;4.78;4.37;;;;;;;18.76;100.00;99352.66;1691214;82;21434;-56
2022/06/13 04:03:34;;;;;;;5.45;5.00;;;;;;;18.81;100.00;99358.55;1715609;81;20987;-55
2022/06/13 04:06:06;;;;;;;5.00;4.35;;;;;;;18.86;100.00;99355.44;1697954;82;20937;-56
2022/06/13 04:08:34;;;;;;;5.53;4.75;;;;;;;18.91;100.00;99362.70;1694880;82;20964;-55
2022/06/13 04:11:37;;;;;;;5.55;4.10;;;;;;;18.96;100.00;99367.77;1699262;82;21006;-57
2022/06/13 04:14:42;;;;;;;4.90;4.42;;;;;;;18.98;100.00;99363.02;1694508;82;21169;-55
2022/06/13 04:17:51;;;;;;;7.80;4.60;;;;;;;19.05;100.00;99362.36;1696886;82;21433;-56
2022/06/13 04:20:40;;;;;;;9.00;4.53;;;;;;;19.13;100.00;99369.86;1691777;82;21131;-57
2022/06/13 04:23:12;;;;;;;6.08;5.47;;;;;;;19.20;100.00;99362.34;1698112;82;21140;-56
2022/06/13 04:26:17;;;;;;;5.10;4.72;;;;;;;19.30;100.00;99367.84;1696926;83;21042;-57
2022/06/13 04:29:07;;;;;;;9.65;6.80;;;;;;;19.37;100.00;99368.14;1687600;82;22867;-57
2022/06/13 04:31:34;;;;;;;6.90;5.28;;;;;;;19.41;100.00;99366.84;1696121;83;21072;-56
2022/06/13 04:34:17;;;;;;;6.80;6.08;;;;;;;19.42;100.00;99373.53;1695075;82;21162;-57
2022/06/13 04:36:44;;;;;;;7.83;4.85;;;;;;;19.45;100.00;99371.91;1695246;83;20961;-57
2022/06/13 04:39:11;;;;;;;6.83;5.08;;;;;;;19.50;100.00;99376.46;1692500;82;21087;-57
2022/06/13 04:41:40;;;;;;;6.45;5.92;;;;;;;19.57;100.00;99366.70;1693381;82;22401;-56
2022/06/13 04:44:07;;;;;;;5.90;4.65;;;;;;;19.64;100.00;99363.80;1690069;83;21295;-55
2022/06/13 04:46:35;;;;;;;6.17;5.53;;;;;;;19.72;100.00;99369.05;1694504;83;21091;-57
2022/06/13 04:49:07;;;;;;;9.25;4.92;;;;;;;19.80;100.00;99363.75;1693750;83;21035;-57
2022/06/13 04:51:41;;;;;;;4.55;4.15;;;;;;;19.91;100.00;99363.59;1688559;83;21081;-56
2022/06/13 04:54:16;;;;;;;4.50;4.20;;;;;;;19.99;100.00;99366.48;1697170;83;21880;-56
2022/06/13 04:56:43;;;;;;;4.37;3.98;;;;;;;20.06;100.00;99363.56;1691714;83;21091;-56
2022/06/13 04:59:15;;;;;;;7.25;4.75;;;;;;;20.12;100.00;99353.92;1694980;83;21083;-56
2022/06/13 05:01:45;;;;;;;5.35;3.92;;;;;;;20.18;100.00;99355.56;1693021;83;21070;-57
2022/06/13 05:04:17;;;;;;;3.92;3.50;;;;;;;20.26;100.00;99355.70;1667094;83;21649;-55
2022/06/13 05:06:51;;;;;;;4.70;4.00;;;;;;;20.35;100.00;99364.43;1696231;83;21188;-57
2022/06/13 05:09:23;;;;;;;3.72;3.37;;;;;;;20.45;100.00;99367.66;1690104;83;21086;-59
2022/06/13 05:12:19;;;;;;;4.03;3.72;;;;;;;20.56;100.00;99372.98;1693488;83;21359;-53
2022/06/13 05:15:14;;;;;;;2.50;2.35;;;;;;;20.67;100.00;99368.73;1690565;82;21130;-56
2022/06/13 05:18:16;;;;;;;2.70;2.50;;;;;;;20.78;100.00;99377.60;1697391;82;21566;-56
2022/06/13 05:21:13;;;;;;;2.65;2.45;;;;;;;20.86;100.00;99376.86;1692981;83;21299;-56
2022/06/13 05:23:52;;;;;;;3.42;2.37;;;;;;;20.96;100.00;99374.10;1690904;83;21105;-56
2022/06/13 05:26:18;;;;;;;2.20;2.10;;;;;;;21.03;100.00;99373.86;1699856;82;22129;-57
2022/06/13 05:28:45;;;;;;;2.22;2.02;;;;;;;21.09;100.00;99372.78;1685385;83;21105;-57
2022/06/13 05:31:18;;;;;;;4.45;1.60;;;;;;;21.15;100.00;99376.28;1679193;83;21072;-57
2022/06/13 05:33:44;;;;;;;3.65;1.92;;;;;;;21.24;100.00;99380.02;1679119;83;21937;-57
2022/06/13 05:36:20;;;;;;;1.45;1.35;;;;;;;21.34;100.00;99382.22;1735168;80;21099;-57
2022/06/13 05:38:57;;;;;;;2.27;1.77;;;;;;;21.43;100.00;99381.81;1734703;80;21067;-56
2022/06/13 05:41:23;;;;;;;1.98;1.85;;;;;;;21.53;100.00;99381.23;1732704;80;20958;-57
2022/06/13 05:43:51;;;;;;;2.80;1.40;;;;;;;21.60;100.00;99379.63;1710869;80;20982;-55
2022/06/13 05:46:22;;;;;;;6.12;1.37;;;;;;;21.66;100.00;99379.52;1731168;80;21517;-56
2022/06/13 05:48:52;;;;;;;3.17;2.27;;;;;;;21.70;100.00;99384.52;1722572;80;21045;-56
2022/06/13 05:51:18;;;;;;;1.55;1.30;;;;;;;21.75;100.00;99384.94;1734836;80;21036;-57
2022/06/13 05:53:45;;;;;;;2.35;2.15;;;;;;;21.80;100.00;99382.59;1735701;80;21074;-57
2022/06/13 05:56:12;;;;;;;2.70;1.90;;;;;;;21.87;100.00;99374.61;1731434;80;21070;-56
2022/06/13 05:58:39;;;;;;;2.50;1.90;;;;;;;21.92;100.00;99381.01;1736609;80;21156;-55
2022/06/13 06:01:06;;;;;;;1.95;1.85;;;;;;;21.99;100.00;99384.88;1732998;80;21379;-56
2022/06/13 06:03:33;;;;;;;1.20;1.10;;;;;;;22.08;100.00;99379.84;1734072;80;21066;-57
2022/06/13 06:06:00;;;;;;;1.27;0.90;;;;;;;22.14;100.00;99381.44;1737982;80;20956;-56
2022/06/13 06:08:33;;;;;;;1.70;0.90;;;;;;;22.23;100.00;99369.54;1700820;82;20911;-56
2022/06/13 06:10:59;;;;;;;1.17;0.95;;;;;;;22.34;100.00;99373.92;1699667;82;21748;-56
2022/06/13 06:13:27;;;;;;;1.05;0.80;;;;;;;22.43;100.00;99376.23;1735955;80;20975;-57
2022/06/13 06:15:55;;;;;;;1.05;1.00;;;;;;;22.49;100.00;99378.33;1732999;80;20926;-56
2022/06/13 06:18:22;;;;;;;1.52;0.80;;;;;;;22.51;100.00;99373.55;1701834;82;20936;-57
2022/06/13 06:20:48;;;;;;;1.00;0.90;;;;;;;22.56;100.00;99373.92;1743478;80;21691;-55
2022/06/13 06:23:15;;;;;;;1.10;0.80;;;;;;;22.60;100.00;99377.58;1734283;80;21510;-57
2022/06/13 06:25:42;;;;;;;0.80;0.80;;;;;;;22.63;100.00;99370.38;1736624;80;21009;-57
2022/06/13 06:28:13;;;;;;;1.70;0.90;;;;;;;22.67;100.00;99371.45;1703870;82;20919;-57
2022/06/13 06:30:40;;;;;;;1.12;0.90;;;;;;;22.70;100.00;99368.39;1736467;80;21406;-57
2022/06/13 06:33:06;;;;;;;3.12;1.00;;;;;;;22.72;100.00;99363.59;1738554;80;21437;-56
2022/06/13 06:35:33;;;;;;;3.72;0.95;;;;;;;22.76;100.00;99367.78;1737974;80;20931;-56
2022/06/13 06:37:59;;;;;;;1.98;1.10;;;;;;;22.81;100.00;99370.89;1739171;80;20959;-57
2022/06/13 06:40:27;;;;;;;1.10;1.00;;;;;;;22.85;100.00;99361.33;1737575;80;21515;-57
2022/06/13 06:42:55;;;;;;;3.05;0.90;;;;;;;22.90;100.00;99365.80;1737846;80;21382;-56
2022/06/13 06:45:25;;;;;;;2.55;0.80;;;;;;;22.95;100.00;99366.20;1739017;80;20975;-56
2022/06/13 06:47:53;;;;;;;0.70;0.70;;;;;;;23.01;100.00;99366.92;1735199;80;21904;-57
2022/06/13 06:50:23;;;;;;;2.22;0.88;;;;;;;23.06;100.00;99360.41;1740177;80;20971;-56
2022/06/13 06:52:49;;;;;;;1.37;1.00;;;;;;;23.12;100.00;99355.67;1740704;80;21049;-57
2022/06/13 07:00:50;;;;;;;0.95;0.50;;;;;;;23.31;100.00;99354.03;1735091;80;21520;-57
2022/06/13 07:03:18;;;;;;;0.60;0.50;;;;;;;23.38;100.00;99356.49;1734491;80;21056;-56
2022/06/13 07:05:46;;;;;;;0.88;0.45;;;;;;;23.43;100.00;99355.98;1734521;80;21491;-57
2022/06/13 07:08:14;;;;;;;2.15;0.50;;;;;;;23.51;100.00;99362.05;1732988;80;21159;-56
2022/06/13 07:10:45;;;;;;;0.88;0.60;;;;;;;23.56;100.00;99357.77;1735708;80;21246;-56
2022/06/13 07:13:10;;;;;;;0.50;0.50;;;;;;;23.58;100.00;99355.72;1736169;80;22335;-56
2022/06/13 07:15:37;;;;;;;0.68;0.60;;;;;;;23.57;100.00;99351.25;1696269;82;20995;-58
2022/06/13 07:18:03;;;;;;;0.60;0.50;;;;;;;23.58;100.00;99357.09;1734037;80;21085;-57
2022/06/13 07:20:30;;;;;;;0.90;0.60;;;;;;;23.60;100.00;99357.80;1733443;80;21055;-58
2022/06/13 07:22:57;;;;;;;0.95;0.60;;;;;;;23.62;100.00;99353.52;1727408;80;21097;-58
2022/06/13 07:25:27;;;;;;;0.90;0.53;;;;;;;23.65;100.00;99351.79;1735557;80;21119;-57
2022/06/13 07:27:54;;;;;;;2.55;0.50;;;;;;;23.69;100.00;99349.07;1734266;80;21040;-57
2022/06/13 07:30:23;;;;;;;0.85;0.60;;;;;;;23.76;100.00;99352.86;1734527;80;21511;-58
2022/06/13 07:32:51;;;;;;;4.00;0.60;;;;;;;23.85;100.00;99352.38;1732769;80;21063;-57
2022/06/13 07:35:19;;;;;;;2.33;0.70;;;;;;;23.93;100.00;99357.38;1736578;80;21063;-58
2022/06/13 07:40:31;;;;;;;0.60;0.60;;;;;;;24.09;100.00;99354.66;1733597;80;21063;-58
2022/06/13 07:43:01;;;;;;;0.60;0.50;;;;;;;24.20;100.00;99356.73;1731565;80;21083;-58
2022/06/13 07:45:30;;;;;;;2.12;0.70;;;;;;;24.30;100.00;99357.47;1736413;80;21050;-57
2022/06/13 07:47:57;;;;;;;3.98;0.70;;;;;;;24.38;100.00;99356.09;1700535;82;21164;-58
2022/06/13 07:50:25;;;;;;;0.75;0.60;;;;;;;24.43;100.00;99349.04;1732774;80;23293;-57
2022/06/13 07:52:52;;;;;;;1.70;0.60;;;;;;;24.50;100.00;99345.08;1735882;80;21021;-58
2022/06/13 07:55:19;;;;;;;1.37;0.60;;;;;;;24.55;100.00;99348.19;1735971;80;22392;-56
2022/06/13 07:57:46;;;;;;;0.90;0.60;;;;;;;24.64;100.00;99351.80;1735678;80;21695;-58
2022/06/13 08:00:25;;;;;;;1.05;0.60;;;;;;;24.71;100.00;99351.44;1737358;80;21478;-59
2022/06/13 08:02:53;;;;;;;1.90;0.50;;;;;;;24.82;100.00;99357.98;1699689;82;21158;-59
2022/06/13 08:05:20;;;;;;;0.95;0.40;;;;;;;24.94;100.00;99346.09;1736734;80;21096;-58
2022/06/13 08:07:46;;;;;;;1.02;0.60;;;;;;;25.04;100.00;99342.12;1736114;80;21102;-58
2022/06/13 08:10:13;;;;;;;1.98;0.70;;;;;;;25.15;100.00;99342.27;1734811;80;21033;-58
2022/06/13 08:12:40;;;;;;;0.60;0.50;;;;;;;25.19;100.00;99340.35;1732260;80;21621;-57
2022/06/13 08:15:07;;;;;;;0.50;0.50;;;;;;;25.20;100.00;99341.21;1735106;80;21209;-56
2022/06/13 08:17:34;;;;;;;0.50;0.50;;;;;;;25.14;100.00;99340.55;1734376;80;21073;-56
2022/06/13 08:20:01;;;;;;;0.53;0.53;;;;;;;25.15;100.00;99344.52;1736703;80;21022;-57
2022/06/13 08:22:27;;;;;;;0.60;0.53;;;;;;;25.16;100.00;99337.11;1731582;80;21438;-58
2022/06/13 08:24:54;;;;;;;1.45;0.80;;;;;;;25.20;100.00;99330.20;1736524;80;21503;-59
2022/06/13 08:27:20;;;;;;;1.05;0.60;;;;;;;25.29;100.00;99328.27;1734380;80;21545;-59
2022/06/13 08:29:48;;;;;;;2.77;0.60;;;;;;;25.32;100.00;99330.16;1736023;80;21078;-56
2022/06/13 08:32:15;;;;;;;0.70;0.60;;;;;;;25.39;100.00;99333.06;1732437;81;20946;-58
2022/06/13 08:34:41;;;;;;;0.60;0.60;;;;;;;25.46;100.00;99324.41;1731756;81;21040;-58
2022/06/13 08:37:08;;;;;;;0.50;0.50;;;;;;;25.51;100.00;99330.27;1725252;81;21051;-59
2022/06/13 08:39:35;;;;;;;1.02;0.50;;;;;;;25.50;100.00;99334.05;1727562;81;21763;-58
2022/06/13 08:42:19;;;;;;;1.60;0.60;;;;;;;25.48;100.00;99331.47;1733651;81;21073;-58
2022/06/13 08:45:07;;;;;;;1.35;0.50;;;;;;;25.42;100.00;99334.95;1730196;81;21516;-58
2022/06/13 08:48:01;;;;;;;2.67;0.50;;;;;;;25.32;100.00;99335.67;1724072;81;20994;-58
2022/06/13 08:50:40;;;;;;;0.57;0.50;;;;;;;25.23;100.00;99336.22;1733348;81;21037;-59
2022/06/13 08:53:23;;;;;;;0.50;0.40;;;;;;;25.18;100.00;99327.61;1728427;81;21562;-58
2022/06/13 08:55:59;;;;;;;0.42;0.42;;;;;;;25.18;100.00;99333.63;1733567;81;21107;-58
2022/06/13 08:58:40;;;;;;;0.50;0.50;;;;;;;25.16;100.00;99324.20;1736130;81;21041;-58
2022/06/13 09:01:20;;;;;;;1.95;0.60;;;;;;;25.15;100.00;99325.75;1732200;81;21081;-58
2022/06/13 09:04:07;;;;;;;1.42;0.53;;;;;;;25.15;100.00;99320.24;1733936;81;21025;-58
2022/06/13 09:06:42;;;;;;;1.05;0.57;;;;;;;25.13;100.00;99321.79;1733379;81;21262;-58
2022/06/13 09:09:49;;;;;;;0.57;0.57;;;;;;;25.10;100.00;99317.14;1730124;81;21487;-58
2022/06/13 09:12:30;;;;;;;0.95;0.60;;;;;;;25.06;100.00;99322.67;1731538;81;21055;-58
2022/06/13 09:15:06;;;;;;;1.85;0.40;;;;;;;24.96;100.00;99316.50;1733079;81;20932;-60
2022/06/13 09:17:59;;;;;;;0.80;0.50;;;;;;;24.85;100.00;99316.31;1730961;81;20943;-59
2022/06/13 09:20:33;;;;;;;1.32;0.47;;;;;;;24.80;100.00;99318.75;1733577;81;21405;-58
2022/06/13 09:23:20;;;;;;;0.60;0.60;;;;;;;24.83;100.00;99313.77;1734669;81;21479;-58
2022/06/13 09:26:13;;;;;;;1.27;0.40;;;;;;;24.89;100.00;99318.56;1735778;81;21378;-57
2022/06/13 09:28:46;;;;;;;0.45;0.40;;;;;;;25.00;100.00;99317.88;1730643;81;20919;-59
2022/06/13 09:31:29;;;;;;;0.40;0.37;;;;;;;25.13;100.00;99314.05;1745537;80;20928;-59
2022/06/13 09:34:10;;;;;;;1.17;0.40;;;;;;;25.24;100.00;99313.67;1738519;80;21216;-59
2022/06/13 09:36:37;;;;;;;0.90;0.40;;;;;;;25.35;100.00;99309.13;1742182;81;20967;-60
2022/06/13 09:39:07;;;;;;;1.60;0.50;;;;;;;25.52;100.00;99311.31;1745478;80;21498;-59
2022/06/13 09:41:55;;;;;;;0.62;0.50;;;;;;;25.66;100.00;99304.20;1712340;82;21117;-58
2022/06/13 09:44:33;;;;;;;0.82;0.50;;;;;;;25.79;100.00;99310.83;1745616;80;20916;-59
2022/06/13 09:47:50;;;;;;;0.98;0.60;;;;;;;25.90;100.00;99299.39;1702653;82;21756;-59
2022/06/13 09:50:31;;;;;;;1.07;0.50;;;;;;;26.04;100.00;99292.22;1729889;80;21125;-57
2022/06/13 09:53:09;;;;;;;1.10;0.50;;;;;;;26.24;100.00;99290.69;1743096;80;21027;-56
2022/06/13 09:56:07;;;;;;;0.50;0.50;;;;;;;26.36;100.00;99289.25;1744510;80;21027;-59
2022/06/13 09:59:12;;;;;;;5.08;0.70;;;;;;;26.36;100.00;99290.63;1747930;80;21038;-58
2022/06/13 10:02:01;;;;;;;0.78;0.50;;;;;;;26.33;100.00;99293.75;1745454;80;22286;-57
2022/06/13 10:04:44;;;;;;;0.50;0.50;;;;;;;26.22;100.00;99303.80;1738496;81;21481;-58
2022/06/13 10:07:35;;;;;;;0.60;0.47;;;;;;;26.16;100.00;99300.41;1744122;82;21031;-58
2022/06/13 10:10:10;;;;;;;4.87;0.57;;;;;;;26.11;100.00;99299.27;1738812;80;21051;-58
2022/06/13 10:12:54;;;;;;;1.70;0.40;;;;;;;26.03;100.00;99296.56;1742293;80;21240;-58
2022/06/13 10:15:44;;;;;;;1.40;0.50;;;;;;;25.98;100.00;99293.81;1742645;80;21126;-58
2022/06/13 10:18:43;;;;;;;0.80;0.50;;;;;;;25.95;100.00;99287.80;1743174;82;21054;-58
2022/06/13 10:21:36;;;;;;;3.25;0.45;;;;;;;25.94;100.00;99287.49;1740035;80;21066;-59
2022/06/13 10:24:24;;;;;;;1.02;0.50;;;;;;;25.93;100.00;99287.15;1738664;80;21101;-59
2022/06/13 10:27:22;;;;;;;0.60;0.40;;;;;;;25.93;100.00;99284.39;1744371;82;21015;-58
2022/06/13 10:30:24;;;;;;;1.72;0.50;;;;;;;25.91;100.00;99285.95;1744821;80;21076;-58
2022/06/13 10:33:17;;;;;;;2.83;0.75;;;;;;;25.94;100.00;99275.94;1741362;80;21616;-57
2022/06/13 10:36:09;;;;;;;0.95;0.40;;;;;;;25.96;100.00;99282.11;1744034;80;21732;-59
2022/06/13 10:39:01;;;;;;;0.70;0.40;;;;;;;25.97;100.00;99279.69;1742067;80;21089;-58
2022/06/13 10:41:28;;;;;;;0.80;0.78;;;;;;;25.99;100.00;99283.13;1744718;80;21556;-58
2022/06/13 10:43:55;;;;;;;0.68;0.50;;;;;;;25.98;100.00;99286.06;1746782;80;22607;-58
2022/06/13 10:46:21;;;;;;;0.42;0.40;;;;;;;25.97;100.00;99279.69;1743399;80;21106;-58
2022/06/13 10:48:56;;;;;;;1.47;0.40;;;;;;;25.99;100.00;99289.16;1739413;81;21158;-58
2022/06/13 10:51:23;;;;;;;1.25;0.40;;;;;;;25.99;100.00;99285.03;1740358;81;21126;-59
2022/06/13 10:53:58;;;;;;;1.52;0.50;;;;;;;25.99;100.00;99283.13;1749319;80;21063;-58
2022/06/13 10:56:43;;;;;;;0.40;0.40;;;;;;;26.00;100.00;99282.09;1735718;80;21263;-58
2022/06/13 10:59:34;;;;;;;0.93;0.40;;;;;;;26.02;100.00;99277.78;1749025;80;21248;-59
2022/06/13 11:02:05;;;;;;;0.98;0.40;;;;;;;26.03;100.00;99273.12;1741107;80;21460;-59
2022/06/13 11:04:35;;;;;;;0.53;0.40;;;;;;;26.04;100.00;99266.53;1718865;82;21623;-58
2022/06/13 11:07:14;;;;;;;0.50;0.40;;;;;;;26.04;100.00;99270.16;1739136;80;21053;-59
2022/06/13 11:09:49;;;;;;;2.35;0.40;;;;;;;26.07;100.00;99266.18;1744468;80;21217;-58
2022/06/13 11:12:25;;;;;;;0.60;0.50;;;;;;;26.10;100.00;99267.20;1718230;80;21091;-58
2022/06/13 11:23:18;;;;;;;4.22;0.50;;;;;;;26.08;100.00;99256.34;1740749;80;21312;-59
2022/06/13 11:25:46;;;;;;;3.60;0.50;;;;;;;26.06;100.00;99258.95;1747245;80;21447;-59
2022/06/13 11:28:15;;;;;;;0.60;0.60;;;;;;;26.07;100.00;99256.53;1685249;82;21023;-59
2022/06/13 11:30:48;;;;;;;3.80;0.40;;;;;;;26.08;100.00;99259.11;1742610;80;20989;-59
2022/06/13 11:33:20;;;;;;;1.77;0.50;;;;;;;26.07;100.00;99256.53;1715801;82;21476;-60
2022/06/13 11:36:26;;;;;;;0.80;0.50;;;;;;;26.09;100.00;99251.69;1736478;80;21345;-59
2022/06/13 11:39:00;;;;;;;1.75;0.50;;;;;;;26.09;100.00;99255.83;1741035;80;21027;-60
2022/06/13 11:41:45;;;;;;;0.60;0.40;;;;;;;26.11;100.00;99252.38;1739403;80;21796;-59
2022/06/13 11:44:18;;;;;;;0.55;0.45;;;;;;;26.12;100.00;99253.54;1742174;80;21243;-60
2022/06/13 11:47:01;;;;;;;1.00;0.40;;;;;;;26.12;100.00;99243.02;1742511;80;21066;-60
2022/06/13 11:49:42;;;;;;;2.47;0.47;;;;;;;26.11;100.00;99247.72;1740685;80;22329;-60
2022/06/13 11:53:35;;;;;;;3.33;0.40;;;;;;;26.10;100.00;99241.00;1747067;80;21026;-59
2022/06/13 11:54:52;;;;;;;0.40;0.40;;;;;;;26.10;100.00;99243.23;1737551;80;21035;-59
2022/06/13 11:57:38;;;;;;;0.60;0.40;;;;;;;26.07;100.00;99239.46;1696146;82;22115;-59
2022/06/13 12:00:31;;;;;;;0.50;0.40;;;;;;;26.03;100.00;99242.23;1686471;83;20943;-58
2022/06/13 12:03:19;;;;;;;2.75;0.40;;;;;;;25.98;100.00;99237.81;1690801;83;21636;-58
2022/06/13 12:05:50;;;;;;;0.40;0.30;;;;;;;25.91;100.00;99246.48;1687154;83;21057;-59
2022/06/13 12:08:28;;;;;;;1.60;0.30;;;;;;;25.84;100.00;99238.62;1687517;83;20951;-59
2022/06/13 12:11:01;;;;;;;0.82;0.40;;;;;;;25.79;100.00;99234.16;1686461;83;21230;-59
2022/06/13 12:13:31;;;;;;;0.50;0.40;;;;;;;25.78;100.00;99228.30;1690362;83;21442;-57
2022/06/13 12:16:20;;;;;;;2.00;0.40;;;;;;;25.81;100.00;99218.30;1695183;83;21366;-59
2022/06/13 12:19:05;;;;;;;1.05;0.30;;;;;;;25.82;100.00;99215.87;1688338;83;21092;-59
2022/06/13 12:21:38;;;;;;;1.85;0.30;;;;;;;25.89;100.00;99212.72;1690428;83;21596;-59
2022/06/13 12:24:28;;;;;;;0.95;0.40;;;;;;;25.99;100.00;99210.58;1693391;83;21464;-59
2022/06/13 12:27:12;;;;;;;0.50;0.40;;;;;;;26.09;100.00;99207.05;1685040;83;20909;-59